sensor_id;sensor_type;location;lat;lon;timestamp;pressure;altitude;pressure_sealevel;temperature;humidity
49297;BME280;35163;48.878;18.040;2023-06-22T00:01:20;98679.97;;;21.57;91.27
49297;BME280;35163;48.878;18.040;2023-06-22T00:03:49;98681.97;;;21.54;91.97
49297;BME280;35163;48.878;18.040;2023-06-22T00:06:16;98687.47;;;21.51;91.75
49297;BME280;35163;48.878;18.040;2023-06-22T00:08:43;98682.22;;;21.51;92.32
49297;BME280;35163;48.878;18.040;2023-06-22T00:11:10;98700.84;;;21.47;92.39
49297;BME280;35163;48.878;18.040;2023-06-22T00:13:37;98703.47;;;21.47;92.00
49297;BME280;35163;48.878;18.040;2023-06-22T00:16:05;98707.91;;;21.47;91.30
49297;BME280;35163;48.878;18.040;2023-06-22T00:18:32;98719.38;;;21.46;92.23
49297;BME280;35163;48.878;18.040;2023-06-22T00:20:59;98722.00;;;21.46;92.63
49297;BME280;35163;48.878;18.040;2023-06-22T00:23:26;98727.91;;;21.49;92.90
49297;BME280;35163;48.878;18.040;2023-06-22T00:25:53;98739.00;;;21.53;92.35
49297;BME280;35163;48.878;18.040;2023-06-22T00:28:20;98726.47;;;21.57;92.81
49297;BME280;35163;48.878;18.040;2023-06-22T00:30:48;98723.03;;;21.56;92.35
49297;BME280;35163;48.878;18.040;2023-06-22T00:33:15;98730.81;;;21.58;91.85
49297;BME280;35163;48.878;18.040;2023-06-22T00:35:43;98733.44;;;21.58;91.69
49297;BME280;35163;48.878;18.040;2023-06-22T00:38:10;98735.22;;;21.57;92.21
49297;BME280;35163;48.878;18.040;2023-06-22T00:40:37;98731.63;;;21.58;91.28
49297;BME280;35163;48.878;18.040;2023-06-22T00:43:04;98731.84;;;21.55;90.93
49297;BME280;35163;48.878;18.040;2023-06-22T00:45:31;98734.94;;;21.49;91.14
49297;BME280;35163;48.878;18.040;2023-06-22T00:47:59;98735.91;;;21.48;91.18
49297;BME280;35163;48.878;18.040;2023-06-22T00:50:31;98744.94;;;21.44;91.81
49297;BME280;35163;48.878;18.040;2023-06-22T00:53:03;98741.34;;;21.45;92.04
49297;BME280;35163;48.878;18.040;2023-06-22T00:55:36;98745.56;;;21.47;91.88
49297;BME280;35163;48.878;18.040;2023-06-22T00:58:05;98744.59;;;21.48;91.70
49297;BME280;35163;48.878;18.040;2023-06-22T01:00:34;98741.16;;;21.48;92.01
49297;BME280;35163;48.878;18.040;2023-06-22T01:03:02;98745.56;;;21.47;92.00
49297;BME280;35163;48.878;18.040;2023-06-22T01:05:29;98743.88;;;21.46;91.83
49297;BME280;35163;48.878;18.040;2023-06-22T01:11:18;98720.53;;;21.42;92.04
49297;BME280;35163;48.878;18.040;2023-06-22T01:13:50;98716.97;;;21.43;91.52
49297;BME280;35163;48.878;18.040;2023-06-22T01:16:33;98716.13;;;21.42;91.91
49297;BME280;35163;48.878;18.040;2023-06-22T01:19:09;98711.72;;;21.43;91.21
49297;BME280;35163;48.878;18.040;2023-06-22T01:21:42;98702.34;;;21.39;91.35
49297;BME280;35163;48.878;18.040;2023-06-22T01:24:18;98700.38;;;21.29;91.58
49297;BME280;35163;48.878;18.040;2023-06-22T01:29:16;98705.84;;;21.26;91.80
49297;BME280;35163;48.878;18.040;2023-06-22T01:31:44;98697.03;;;21.27;92.45
49297;BME280;35163;48.878;18.040;2023-06-22T01:34:12;98699.78;;;21.26;91.97
49297;BME280;35163;48.878;18.040;2023-06-22T01:36:39;98691.28;;;21.22;92.52
49297;BME280;35163;48.878;18.040;2023-06-22T01:39:07;98694.59;;;21.24;92.76
49297;BME280;35163;48.878;18.040;2023-06-22T01:41:37;98697.22;;;21.24;92.68
49297;BME280;35163;48.878;18.040;2023-06-22T01:44:08;98687.78;;;21.21;93.81
49297;BME280;35163;48.878;18.040;2023-06-22T01:46:36;98687.91;;;21.20;93.81
49297;BME280;35163;48.878;18.040;2023-06-22T01:49:04;98678.94;;;21.22;93.72
49297;BME280;35163;48.878;18.040;2023-06-22T01:51:31;98675.28;;;21.25;93.68
49297;BME280;35163;48.878;18.040;2023-06-22T01:53:58;98687.44;;;21.26;92.98
49297;BME280;35163;48.878;18.040;2023-06-22T01:56:26;98686.53;;;21.27;92.78
49297;BME280;35163;48.878;18.040;2023-06-22T01:59:03;98691.97;;;21.24;92.04
49297;BME280;35163;48.878;18.040;2023-06-22T02:01:43;98690.53;;;21.20;92.42
49297;BME280;35163;48.878;18.040;2023-06-22T02:04:20;98694.13;;;21.19;93.28
49297;BME280;35163;48.878;18.040;2023-06-22T02:06:50;98695.69;;;21.21;92.92
49297;BME280;35163;48.878;18.040;2023-06-22T02:09:19;98696.53;;;21.22;92.85
49297;BME280;35163;48.878;18.040;2023-06-22T02:11:50;98701.69;;;21.23;92.64
49297;BME280;35163;48.878;18.040;2023-06-22T02:14:22;98695.44;;;21.24;92.59
49297;BME280;35163;48.878;18.040;2023-06-22T02:16:51;98692.81;;;21.24;92.81
49297;BME280;35163;48.878;18.040;2023-06-22T02:19:22;98697.97;;;21.26;92.77
49297;BME280;35163;48.878;18.040;2023-06-22T02:21:49;98696.41;;;21.23;92.78
49297;BME280;35163;48.878;18.040;2023-06-22T02:24:16;98693.91;;;21.22;92.76
49297;BME280;35163;48.878;18.040;2023-06-22T02:26:43;98687.56;;;21.24;91.77
49297;BME280;35163;48.878;18.040;2023-06-22T02:29:12;98679.91;;;21.21;92.32
49297;BME280;35163;48.878;18.040;2023-06-22T02:31:38;98686.63;;;21.26;92.17
49297;BME280;35163;48.878;18.040;2023-06-22T02:34:06;98691.97;;;21.24;91.68
49297;BME280;35163;48.878;18.040;2023-06-22T02:36:33;98694.94;;;21.19;92.61
49297;BME280;35163;48.878;18.040;2023-06-22T02:39:00;98692.19;;;21.21;92.63
49297;BME280;35163;48.878;18.040;2023-06-22T02:41:28;98695.78;;;21.20;92.37
49297;BME280;35163;48.878;18.040;2023-06-22T02:43:54;98687.16;;;21.18;92.37
49297;BME280;35163;48.878;18.040;2023-06-22T02:46:24;98697.69;;;21.18;92.70
49297;BME280;35163;48.878;18.040;2023-06-22T02:48:52;98709.28;;;21.15;92.43
49297;BME280;35163;48.878;18.040;2023-06-22T02:51:19;98709.47;;;21.12;93.43
49297;BME280;35163;48.878;18.040;2023-06-22T02:53:46;98703.38;;;21.11;93.01
49297;BME280;35163;48.878;18.040;2023-06-22T02:56:15;98692.25;;;21.08;93.31
49297;BME280;35163;48.878;18.040;2023-06-22T02:58:43;98707.16;;;21.07;92.98
49297;BME280;35163;48.878;18.040;2023-06-22T03:01:10;98701.91;;;21.07;92.97
49297;BME280;35163;48.878;18.040;2023-06-22T03:03:39;98700.13;;;21.08;92.48
49297;BME280;35163;48.878;18.040;2023-06-22T03:06:06;98696.03;;;21.04;93.52
49297;BME280;35163;48.878;18.040;2023-06-22T03:08:33;98707.16;;;21.07;92.74
49297;BME280;35163;48.878;18.040;2023-06-22T03:10:59;98701.69;;;21.10;92.35
49297;BME280;35163;48.878;18.040;2023-06-22T03:13:27;98705.28;;;21.09;92.78
49297;BME280;35163;48.878;18.040;2023-06-22T03:15:53;98698.47;;;21.07;92.68
49297;BME280;35163;48.878;18.040;2023-06-22T03:18:20;98703.72;;;21.07;92.81
49297;BME280;35163;48.878;18.040;2023-06-22T03:20:48;98704.66;;;21.06;92.03
49297;BME280;35163;48.878;18.040;2023-06-22T03:23:15;98707.06;;;21.09;91.64
49297;BME280;35163;48.878;18.040;2023-06-22T03:25:42;98712.66;;;21.04;91.82
49297;BME280;35163;48.878;18.040;2023-06-22T03:28:11;98707.16;;;21.07;91.74
49297;BME280;35163;48.878;18.040;2023-06-22T03:30:37;98710.97;;;21.03;92.52
49297;BME280;35163;48.878;18.040;2023-06-22T03:33:04;98712.66;;;21.04;92.78
49297;BME280;35163;48.878;18.040;2023-06-22T03:35:31;98708.03;;;20.95;93.62
49297;BME280;35163;48.878;18.040;2023-06-22T03:37:57;98717.72;;;20.94;93.88
49297;BME280;35163;48.878;18.040;2023-06-22T03:40:24;98716.75;;;20.95;94.79
49297;BME280;35163;48.878;18.040;2023-06-22T03:42:51;98715.91;;;20.95;93.77
49297;BME280;35163;48.878;18.040;2023-06-22T03:45:18;98719.16;;;20.98;93.46
49297;BME280;35163;48.878;18.040;2023-06-22T03:47:45;98718.13;;;21.01;92.95
49297;BME280;35163;48.878;18.040;2023-06-22T03:50:11;98712.66;;;21.04;92.30
49297;BME280;35163;48.878;18.040;2023-06-22T03:52:38;98718.53;;;21.08;91.83
49297;BME280;35163;48.878;18.040;2023-06-22T03:55:06;98725.69;;;21.06;91.58
49297;BME280;35163;48.878;18.040;2023-06-22T03:57:33;98731.16;;;21.03;92.24
49297;BME280;35163;48.878;18.040;2023-06-22T04:00:00;98734.59;;;20.90;93.63
49297;BME280;35163;48.878;18.040;2023-06-22T04:02:28;98744.81;;;20.95;94.17
49297;BME280;35163;48.878;18.040;2023-06-22T04:04:55;98750.06;;;20.95;94.00
49297;BME280;35163;48.878;18.040;2023-06-22T04:07:22;98745.00;;;20.92;94.10
49297;BME280;35163;48.878;18.040;2023-06-22T04:09:48;98736.41;;;20.90;93.87
49297;BME280;35163;48.878;18.040;2023-06-22T04:12:15;98724.84;;;20.92;93.24
49297;BME280;35163;48.878;18.040;2023-06-22T04:14:42;98715.91;;;20.95;93.21
49297;BME280;35163;48.878;18.040;2023-06-22T04:17:08;98720.03;;;20.99;93.40
49297;BME280;35163;48.878;18.040;2023-06-22T04:19:35;98722.31;;;21.04;92.97
49297;BME280;35163;48.878;18.040;2023-06-22T04:22:02;98723.91;;;21.06;92.44
49297;BME280;35163;48.878;18.040;2023-06-22T04:24:29;98719.38;;;21.08;91.76
49297;BME280;35163;48.878;18.040;2023-06-22T04:26:55;98716.25;;;21.03;92.43
49297;BME280;35163;48.878;18.040;2023-06-22T04:29:22;98725.56;;;21.07;91.94
49297;BME280;35163;48.878;18.040;2023-06-22T04:31:58;98729.69;;;21.11;91.47
49297;BME280;35163;48.878;18.040;2023-06-22T04:34:29;98742.09;;;21.09;91.77
49297;BME280;35163;48.878;18.040;2023-06-22T04:36:56;98741.34;;;21.07;92.56
49297;BME280;35163;48.878;18.040;2023-06-22T04:39:26;98735.75;;;21.12;93.01
49297;BME280;35163;48.878;18.040;2023-06-22T04:41:53;98728.50;;;21.16;92.29
49297;BME280;35163;48.878;18.040;2023-06-22T04:44:21;98734.72;;;21.15;93.34
49297;BME280;35163;48.878;18.040;2023-06-22T04:46:56;98740.81;;;21.15;92.46
49297;BME280;35163;48.878;18.040;2023-06-22T04:49:30;98743.34;;;21.17;92.75
49297;BME280;35163;48.878;18.040;2023-06-22T04:52:09;98747.41;;;21.21;92.59
49297;BME280;35163;48.878;18.040;2023-06-22T04:54:37;98745.41;;;21.24;91.92
49297;BME280;35163;48.878;18.040;2023-06-22T04:57:06;98743.75;;;21.23;91.07
49297;BME280;35163;48.878;18.040;2023-06-22T04:59:38;98751.53;;;21.25;90.38
49297;BME280;35163;48.878;18.040;2023-06-22T05:02:05;98755.81;;;21.26;90.93
49297;BME280;35163;48.878;18.040;2023-06-22T05:04:32;98763.69;;;21.26;89.89
49297;BME280;35163;48.878;18.040;2023-06-22T05:07:00;98769.19;;;21.23;89.99
49297;BME280;35163;48.878;18.040;2023-06-22T05:09:27;98757.00;;;21.22;89.86
49297;BME280;35163;48.878;18.040;2023-06-22T05:11:54;98754.38;;;21.22;89.67
49297;BME280;35163;48.878;18.040;2023-06-22T05:14:20;98758.88;;;21.20;90.15
49297;BME280;35163;48.878;18.040;2023-06-22T05:16:48;98771.69;;;21.24;90.39
49297;BME280;35163;48.878;18.040;2023-06-22T05:19:15;98767.06;;;21.28;90.31
49297;BME280;35163;48.878;18.040;2023-06-22T05:21:41;98772.09;;;21.31;91.45
49297;BME280;35163;48.878;18.040;2023-06-22T05:24:08;98772.72;;;21.35;90.64
49297;BME280;35163;48.878;18.040;2023-06-22T05:26:35;98760.31;;;21.37;90.95
49297;BME280;35163;48.878;18.040;2023-06-22T05:29:03;98761.88;;;21.40;89.32
49297;BME280;35163;48.878;18.040;2023-06-22T05:31:29;98766.84;;;21.44;89.70
49297;BME280;35163;48.878;18.040;2023-06-22T05:33:57;98767.66;;;21.45;89.40
49297;BME280;35163;48.878;18.040;2023-06-22T05:36:23;98765.88;;;21.45;88.58
49297;BME280;35163;48.878;18.040;2023-06-22T05:38:56;98774.09;;;21.41;88.15
49297;BME280;35163;48.878;18.040;2023-06-22T05:41:23;98764.59;;;21.51;88.63
49297;BME280;35163;48.878;18.040;2023-06-22T05:43:49;98763.00;;;21.48;87.70
49297;BME280;35163;48.878;18.040;2023-06-22T05:46:16;98760.03;;;21.53;87.57
49297;BME280;35163;48.878;18.040;2023-06-22T05:48:43;98771.66;;;21.51;88.18
49297;BME280;35163;48.878;18.040;2023-06-22T05:51:10;98773.31;;;21.52;88.68
49297;BME280;35163;48.878;18.040;2023-06-22T05:53:37;98775.53;;;21.58;88.67
49297;BME280;35163;48.878;18.040;2023-06-22T05:56:03;98774.03;;;21.67;89.07
49297;BME280;35163;48.878;18.040;2023-06-22T05:58:30;98772.84;;;21.71;88.63
49297;BME280;35163;48.878;18.040;2023-06-22T06:00:57;98767.34;;;21.74;88.73
49297;BME280;35163;48.878;18.040;2023-06-22T06:03:24;98763.34;;;21.81;88.44
49297;BME280;35163;48.878;18.040;2023-06-22T06:05:50;98762.06;;;21.87;87.84
49297;BME280;35163;48.878;18.040;2023-06-22T06:08:17;98775.72;;;21.92;87.18
49297;BME280;35163;48.878;18.040;2023-06-22T06:10:44;98774.88;;;21.92;86.61
49297;BME280;35163;48.878;18.040;2023-06-22T06:13:11;98773.09;;;21.92;86.27
49297;BME280;35163;48.878;18.040;2023-06-22T06:15:37;98780.66;;;21.97;86.55
49297;BME280;35163;48.878;18.040;2023-06-22T06:18:04;98777.56;;;22.03;86.72
49297;BME280;35163;48.878;18.040;2023-06-22T06:20:32;98774.50;;;22.09;86.25
49297;BME280;35163;48.878;18.040;2023-06-22T06:22:59;98788.28;;;22.13;85.38
49297;BME280;35163;48.878;18.040;2023-06-22T06:25:26;98784.56;;;22.16;85.57
49297;BME280;35163;48.878;18.040;2023-06-22T06:27:53;98783.38;;;22.20;85.33
49297;BME280;35163;48.878;18.040;2023-06-22T06:30:21;98783.16;;;22.23;85.21
49297;BME280;35163;48.878;18.040;2023-06-22T06:32:49;98775.50;;;22.31;85.34
49297;BME280;35163;48.878;18.040;2023-06-22T06:35:17;98772.09;;;22.42;84.84
49297;BME280;35163;48.878;18.040;2023-06-22T06:37:47;98762.41;;;22.54;83.91
49297;BME280;35163;48.878;18.040;2023-06-22T06:40:15;98767.25;;;22.72;84.61
49297;BME280;35163;48.878;18.040;2023-06-22T06:42:47;98756.59;;;22.85;82.52
49297;BME280;35163;48.878;18.040;2023-06-22T06:45:18;98750.72;;;23.04;81.86
49297;BME280;35163;48.878;18.040;2023-06-22T06:47:46;98759.56;;;23.15;81.54
49297;BME280;35163;48.878;18.040;2023-06-22T06:50:13;98765.81;;;23.25;82.17
49297;BME280;35163;48.878;18.040;2023-06-22T06:52:40;98774.06;;;23.32;80.99
49297;BME280;35163;48.878;18.040;2023-06-22T06:55:07;98770.00;;;23.39;80.85
49297;BME280;35163;48.878;18.040;2023-06-22T06:57:37;98766.16;;;23.55;79.56
49297;BME280;35163;48.878;18.040;2023-06-22T07:02:32;98766.19;;;23.88;78.46
49297;BME280;35163;48.878;18.040;2023-06-22T07:05:02;98757.47;;;24.09;76.74
49297;BME280;35163;48.878;18.040;2023-06-22T07:07:31;98758.00;;;24.24;76.40
49297;BME280;35163;48.878;18.040;2023-06-22T07:09:57;98763.81;;;24.39;76.50
49297;BME280;35163;48.878;18.040;2023-06-22T07:12:25;98756.56;;;24.62;76.87
49297;BME280;35163;48.878;18.040;2023-06-22T07:14:53;98758.88;;;24.77;72.79
49297;BME280;35163;48.878;18.040;2023-06-22T07:17:20;98760.53;;;24.99;74.11
49297;BME280;35163;48.878;18.040;2023-06-22T07:19:46;98763.25;;;25.19;73.78
49297;BME280;35163;48.878;18.040;2023-06-22T07:22:13;98768.63;;;25.39;72.68
49297;BME280;35163;48.878;18.040;2023-06-22T07:24:40;98755.25;;;25.51;70.45
49297;BME280;35163;48.878;18.040;2023-06-22T07:27:09;98749.47;;;25.67;70.04
49297;BME280;35163;48.878;18.040;2023-06-22T07:29:38;98744.16;;;25.87;69.27
49297;BME280;35163;48.878;18.040;2023-06-22T07:32:07;98742.06;;;26.10;69.81
49297;BME280;35163;48.878;18.040;2023-06-22T07:34:34;98744.28;;;26.35;69.90
49297;BME280;35163;48.878;18.040;2023-06-22T07:37:00;98747.31;;;26.60;71.84
49297;BME280;35163;48.878;18.040;2023-06-22T07:39:27;98744.03;;;26.76;67.49
49297;BME280;35163;48.878;18.040;2023-06-22T07:41:54;98751.94;;;26.96;68.65
49297;BME280;35163;48.878;18.040;2023-06-22T07:44:21;98740.72;;;27.12;64.89
49297;BME280;35163;48.878;18.040;2023-06-22T07:46:48;98746.09;;;27.20;65.23
49297;BME280;35163;48.878;18.040;2023-06-22T07:49:14;98736.50;;;27.37;66.96
49297;BME280;35163;48.878;18.040;2023-06-22T07:51:41;98741.72;;;27.57;64.14
49297;BME280;35163;48.878;18.040;2023-06-22T07:54:09;98736.88;;;27.71;65.29
49297;BME280;35163;48.878;18.040;2023-06-22T07:56:37;98740.44;;;27.80;62.24
49297;BME280;35163;48.878;18.040;2023-06-22T07:59:03;98746.06;;;27.95;62.67
49297;BME280;35163;48.878;18.040;2023-06-22T08:01:30;98745.81;;;28.06;61.09
49297;BME280;35163;48.878;18.040;2023-06-22T08:03:57;98747.56;;;28.16;61.58
49297;BME280;35163;48.878;18.040;2023-06-22T08:06:23;98745.72;;;28.34;63.10
49297;BME280;35163;48.878;18.040;2023-06-22T08:08:50;98738.16;;;28.48;61.84
49297;BME280;35163;48.878;18.040;2023-06-22T08:11:19;98737.88;;;28.59;60.70
49297;BME280;35163;48.878;18.040;2023-06-22T08:13:46;98744.63;;;28.72;60.09
49297;BME280;35163;48.878;18.040;2023-06-22T08:16:12;98740.00;;;28.82;60.63
49297;BME280;35163;48.878;18.040;2023-06-22T08:18:39;98738.75;;;28.95;60.88
49297;BME280;35163;48.878;18.040;2023-06-22T08:21:06;98742.16;;;29.05;57.39
49297;BME280;35163;48.878;18.040;2023-06-22T08:23:33;98741.84;;;29.17;59.82
49297;BME280;35163;48.878;18.040;2023-06-22T08:25:59;98742.53;;;29.27;59.16
49297;BME280;35163;48.878;18.040;2023-06-22T08:28:26;98751.22;;;29.38;57.99
49297;BME280;35163;48.878;18.040;2023-06-22T08:30:53;98752.72;;;29.48;57.88
49297;BME280;35163;48.878;18.040;2023-06-22T08:33:19;98750.91;;;29.49;55.02
49297;BME280;35163;48.878;18.040;2023-06-22T08:35:59;98755.56;;;29.55;53.48
49297;BME280;35163;48.878;18.040;2023-06-22T08:38:26;98753.59;;;29.57;53.10
49297;BME280;35163;48.878;18.040;2023-06-22T08:40:53;98751.97;;;29.65;53.53
49297;BME280;35163;48.878;18.040;2023-06-22T08:43:20;98748.97;;;29.68;53.21
49297;BME280;35163;48.878;18.040;2023-06-22T08:45:46;98751.47;;;29.69;51.59
49297;BME280;35163;48.878;18.040;2023-06-22T08:48:13;98742.00;;;29.75;53.63
49297;BME280;35163;48.878;18.040;2023-06-22T08:50:40;98736.31;;;29.70;50.38
49297;BME280;35163;48.878;18.040;2023-06-22T08:53:07;98736.66;;;29.75;54.06
49297;BME280;35163;48.878;18.040;2023-06-22T08:55:34;98737.16;;;29.79;54.59
49297;BME280;35163;48.878;18.040;2023-06-22T08:58:00;98736.66;;;29.83;52.48
49297;BME280;35163;48.878;18.040;2023-06-22T09:00:27;98725.16;;;29.83;53.88
49297;BME280;35163;48.878;18.040;2023-06-22T09:02:55;98724.69;;;29.88;55.27
49297;BME280;35163;48.878;18.040;2023-06-22T09:05:25;98725.66;;;29.87;50.41
49297;BME280;35163;48.878;18.040;2023-06-22T09:07:53;98723.69;;;29.89;51.94
49297;BME280;35163;48.878;18.040;2023-06-22T09:10:22;98719.66;;;29.84;49.01
49297;BME280;35163;48.878;18.040;2023-06-22T09:12:49;98719.03;;;29.82;48.29
49297;BME280;35163;48.878;18.040;2023-06-22T09:15:16;98723.00;;;29.87;50.53
49297;BME280;35163;48.878;18.040;2023-06-22T09:17:44;98722.50;;;29.91;51.31
49297;BME280;35163;48.878;18.040;2023-06-22T09:20:13;98720.00;;;29.90;48.53
49297;BME280;35163;48.878;18.040;2023-06-22T09:22:41;98719.50;;;29.86;47.75
49297;BME280;35163;48.878;18.040;2023-06-22T09:25:08;98715.69;;;29.89;50.85
49297;BME280;35163;48.878;18.040;2023-06-22T09:27:34;98715.34;;;29.92;49.15
49297;BME280;35163;48.878;18.040;2023-06-22T09:30:05;98714.03;;;29.96;50.88
49297;BME280;35163;48.878;18.040;2023-06-22T09:32:32;98712.50;;;29.93;50.88
49297;BME280;35163;48.878;18.040;2023-06-22T09:35:02;98706.66;;;29.98;51.19
49297;BME280;35163;48.878;18.040;2023-06-22T09:37:29;98703.69;;;30.01;51.77
49297;BME280;35163;48.878;18.040;2023-06-22T09:39:55;98703.34;;;30.04;52.84
49297;BME280;35163;48.878;18.040;2023-06-22T09:42:22;98703.03;;;29.99;49.71
49297;BME280;35163;48.878;18.040;2023-06-22T09:44:49;98703.53;;;30.03;55.17
49297;BME280;35163;48.878;18.040;2023-06-22T09:47:15;98705.84;;;30.06;55.44
49297;BME280;35163;48.878;18.040;2023-06-22T09:49:42;98705.50;;;30.09;52.54
49297;BME280;35163;48.878;18.040;2023-06-22T09:52:13;98704.19;;;30.13;53.90
49297;BME280;35163;48.878;18.040;2023-06-22T09:54:40;98707.50;;;30.15;54.15
49297;BME280;35163;48.878;18.040;2023-06-22T09:57:07;98704.81;;;30.15;52.88
49297;BME280;35163;48.878;18.040;2023-06-22T09:59:33;98699.34;;;30.17;52.50
49297;BME280;35163;48.878;18.040;2023-06-22T10:02:00;98701.53;;;30.22;53.33
49297;BME280;35163;48.878;18.040;2023-06-22T10:04:27;98702.34;;;30.22;52.03
49297;BME280;35163;48.878;18.040;2023-06-22T10:06:57;98694.34;;;30.22;51.80
49297;BME280;35163;48.878;18.040;2023-06-22T10:09:23;98690.69;;;30.23;53.24
49297;BME280;35163;48.878;18.040;2023-06-22T10:11:50;98687.69;;;30.26;52.28
49297;BME280;35163;48.878;18.040;2023-06-22T10:14:18;98685.00;;;30.18;49.87
49297;BME280;35163;48.878;18.040;2023-06-22T10:16:45;98685.69;;;30.20;52.67
49297;BME280;35163;48.878;18.040;2023-06-22T10:19:12;98671.19;;;30.23;52.33
49297;BME280;35163;48.878;18.040;2023-06-22T10:21:38;98674.03;;;30.21;51.26
49297;BME280;35163;48.878;18.040;2023-06-22T10:24:05;98675.19;;;30.18;51.33
49297;BME280;35163;48.878;18.040;2023-06-22T10:29:04;98671.69;;;30.18;50.35
49297;BME280;35163;48.878;18.040;2023-06-22T10:31:43;98660.84;;;30.19;50.81
49297;BME280;35163;48.878;18.040;2023-06-22T10:34:14;98657.50;;;30.17;50.63
49297;BME280;35163;48.878;18.040;2023-06-22T10:36:41;98659.38;;;30.17;53.16
49297;BME280;35163;48.878;18.040;2023-06-22T10:39:07;98663.69;;;30.18;54.39
49297;BME280;35163;48.878;18.040;2023-06-22T10:41:35;98660.00;;;30.19;52.57
49297;BME280;35163;48.878;18.040;2023-06-22T10:44:02;98649.34;;;30.19;53.29
49297;BME280;35163;48.878;18.040;2023-06-22T10:46:29;98665.88;;;30.23;52.32
49297;BME280;35163;48.878;18.040;2023-06-22T10:48:58;98655.03;;;30.16;52.61
49297;BME280;35163;48.878;18.040;2023-06-22T10:51:25;98653.38;;;30.23;52.46
49297;BME280;35163;48.878;18.040;2023-06-22T10:53:52;98648.72;;;30.25;52.72
49297;BME280;35163;48.878;18.040;2023-06-22T10:56:19;98655.03;;;30.24;53.48
49297;BME280;35163;48.878;18.040;2023-06-22T10:58:46;98653.69;;;30.28;53.00
49297;BME280;35163;48.878;18.040;2023-06-22T11:01:12;98651.88;;;30.29;51.68
49297;BME280;35163;48.878;18.040;2023-06-22T11:03:59;98650.38;;;30.26;51.20
49297;BME280;35163;48.878;18.040;2023-06-22T11:06:27;98656.53;;;30.27;52.10
49297;BME280;35163;48.878;18.040;2023-06-22T11:08:56;98647.69;;;30.26;53.86
49297;BME280;35163;48.878;18.040;2023-06-22T11:11:37;98644.69;;;30.29;54.01
49297;BME280;35163;48.878;18.040;2023-06-22T11:14:04;98647.53;;;30.28;54.81
49297;BME280;35163;48.878;18.040;2023-06-22T11:16:30;98643.03;;;30.28;55.52
49297;BME280;35163;48.878;18.040;2023-06-22T11:18:57;98635.22;;;30.27;54.50
49297;BME280;35163;48.878;18.040;2023-06-22T11:21:24;98630.22;;;30.24;54.45
49297;BME280;35163;48.878;18.040;2023-06-22T11:23:50;98624.88;;;30.24;53.30
49297;BME280;35163;48.878;18.040;2023-06-22T11:26:17;98624.72;;;30.25;53.07
49297;BME280;35163;48.878;18.040;2023-06-22T11:28:44;98620.03;;;30.27;55.42
49297;BME280;35163;48.878;18.040;2023-06-22T11:31:13;98627.38;;;30.25;52.54
49297;BME280;35163;48.878;18.040;2023-06-22T11:33:43;98616.72;;;30.25;53.63
49297;BME280;35163;48.878;18.040;2023-06-22T11:36:12;98616.53;;;30.27;54.51
49297;BME280;35163;48.878;18.040;2023-06-22T11:38:39;98611.03;;;30.28;52.75
49297;BME280;35163;48.878;18.040;2023-06-22T11:41:06;98607.34;;;30.29;53.30
49297;BME280;35163;48.878;18.040;2023-06-22T11:43:36;98603.88;;;30.29;54.50
49297;BME280;35163;48.878;18.040;2023-06-22T11:46:04;98602.19;;;30.28;53.90
49297;BME280;35163;48.878;18.040;2023-06-22T11:48:31;98602.03;;;30.29;55.74
49297;BME280;35163;48.878;18.040;2023-06-22T11:50:58;98601.03;;;30.30;55.21
49297;BME280;35163;48.878;18.040;2023-06-22T11:53:27;98598.38;;;30.30;56.09
49297;BME280;35163;48.878;18.040;2023-06-22T11:55:56;98593.03;;;30.30;55.37
49297;BME280;35163;48.878;18.040;2023-06-22T11:58:23;98592.69;;;30.34;56.24
49297;BME280;35163;48.878;18.040;2023-06-22T12:00:49;98577.34;;;30.36;57.29
49297;BME280;35163;48.878;18.040;2023-06-22T12:03:18;98578.84;;;30.38;57.05
49297;BME280;35163;48.878;18.040;2023-06-22T12:05:46;98579.72;;;30.30;54.39
49297;BME280;35163;48.878;18.040;2023-06-22T12:08:13;98584.19;;;30.30;53.11
49297;BME280;35163;48.878;18.040;2023-06-22T12:10:40;98578.69;;;30.31;53.36
49297;BME280;35163;48.878;18.040;2023-06-22T12:13:07;98579.53;;;30.32;53.22
49297;BME280;35163;48.878;18.040;2023-06-22T12:15:34;98570.16;;;30.36;55.33
49297;BME280;35163;48.878;18.040;2023-06-22T12:18:03;98569.81;;;30.39;54.83
49297;BME280;35163;48.878;18.040;2023-06-22T12:20:30;98578.53;;;30.33;54.34
49297;BME280;35163;48.878;18.040;2023-06-22T12:22:58;98566.50;;;30.37;54.11
49297;BME280;35163;48.878;18.040;2023-06-22T12:25:25;98569.81;;;30.39;55.31
49297;BME280;35163;48.878;18.040;2023-06-22T12:27:52;98564.16;;;30.42;56.34
49297;BME280;35163;48.878;18.040;2023-06-22T12:30:18;98569.97;;;30.46;56.60
49297;BME280;35163;48.878;18.040;2023-06-22T12:32:45;98565.28;;;30.48;58.03
49297;BME280;35163;48.878;18.040;2023-06-22T12:35:34;98558.97;;;30.49;57.75
49297;BME280;35163;48.878;18.040;2023-06-22T12:38:01;98563.94;;;30.52;56.44
49297;BME280;35163;48.878;18.040;2023-06-22T12:40:29;98561.94;;;30.54;56.17
49297;BME280;35163;48.878;18.040;2023-06-22T12:42:56;98557.41;;;30.55;57.17
49297;BME280;35163;48.878;18.040;2023-06-22T12:45:23;98557.91;;;30.59;58.00
49297;BME280;35163;48.878;18.040;2023-06-22T12:47:51;98557.09;;;30.58;56.58
49297;BME280;35163;48.878;18.040;2023-06-22T12:50:17;98554.25;;;30.60;55.65
49297;BME280;35163;48.878;18.040;2023-06-22T12:52:44;98555.88;;;30.61;54.85
49297;BME280;35163;48.878;18.040;2023-06-22T12:55:11;98544.06;;;30.63;56.22
49297;BME280;35163;48.878;18.040;2023-06-22T12:57:38;98542.84;;;30.66;56.89
49297;BME280;35163;48.878;18.040;2023-06-22T13:00:07;98547.00;;;30.68;55.01
49297;BME280;35163;48.878;18.040;2023-06-22T13:02:36;98539.84;;;30.69;53.42
49297;BME280;35163;48.878;18.040;2023-06-22T13:05:03;98536.31;;;30.68;52.15